Time;durP1;ratioP1;P1;durP2;ratioP2;P2;SDS_P1;SDS_P2;PMS_P1;PMS_P2;Temp;Humidity;BMP_temperature;BMP_pressure;BME280_temperature;BME280_humidity;BME280_pressure;Samples;Min_cycle;Max_cycle;Signal;HPM_P1;HPM_P2
2022/07/15 00:00:02;;;;;;;9.77;1.80;;;17.80;99.90;;;;;;5058976;28;20566;-82
2022/07/15 00:02:29;;;;;;;6.67;2.03;;;17.70;99.90;;;;;;5058098;28;20456;-83
2022/07/15 00:04:56;;;;;;;3.17;1.67;;;17.70;99.90;;;;;;5058028;28;21006;-84
2022/07/15 00:07:23;;;;;;;3.87;1.80;;;17.80;99.90;;;;;;5059225;28;20509;-83
2022/07/15 00:12:35;;;;;;;4.00;1.70;;;17.80;99.90;;;;;;5062698;28;20432;-84
2022/07/15 00:15:02;;;;;;;4.57;2.00;;;17.80;99.90;;;;;;5061571;28;20497;-85
2022/07/15 00:17:30;;;;;;;5.40;1.77;;;17.80;99.90;;;;;;5083145;28;20536;-82
2022/07/15 00:19:56;;;;;;;5.70;2.03;;;17.80;99.90;;;;;;5082914;28;21023;-82
2022/07/15 00:22:23;;;;;;;3.87;1.70;;;17.80;99.90;;;;;;5084326;28;20531;-83
2022/07/15 00:24:50;;;;;;;6.20;1.43;;;17.80;99.90;;;;;;5081772;28;20946;-86
2022/07/15 00:27:17;;;;;;;4.00;1.53;;;17.90;99.90;;;;;;5065901;28;20973;-84
2022/07/15 00:29:45;;;;;;;6.33;1.70;;;17.90;99.90;;;;;;5062950;28;20547;-86
2022/07/15 00:32:12;;;;;;;4.90;2.33;;;17.90;99.90;;;;;;5061979;28;20966;-83
2022/07/15 00:34:39;;;;;;;4.83;2.00;;;17.90;99.90;;;;;;5061931;28;20916;-85
2022/07/15 00:37:06;;;;;;;4.93;1.93;;;17.90;99.90;;;;;;5078037;28;21013;-83
2022/07/15 00:39:33;;;;;;;6.40;2.40;;;17.90;99.90;;;;;;5083814;28;20493;-83
2022/07/15 00:42:00;;;;;;;3.90;1.80;;;17.90;99.90;;;;;;5082802;28;20528;-84
2022/07/15 00:44:27;;;;;;;6.20;1.97;;;18.00;99.90;;;;;;5082426;28;20453;-86
2022/07/15 00:46:56;;;;;;;4.77;1.90;;;18.00;99.90;;;;;;5069048;28;20487;-84
2022/07/15 00:49:23;;;;;;;5.40;2.20;;;18.00;99.90;;;;;;5064200;28;20540;-84
2022/07/15 00:51:52;;;;;;;5.20;2.33;;;18.00;99.90;;;;;;5063343;28;20594;-85
2022/07/15 00:54:24;;;;;;;4.00;1.60;;;17.90;99.90;;;;;;5065546;28;20467;-84
2022/07/15 00:56:52;;;;;;;5.27;2.23;;;17.90;99.90;;;;;;5078279;28;20450;-82
2022/07/15 00:59:22;;;;;;;6.13;2.13;;;17.80;99.90;;;;;;5085974;28;20502;-85
2022/07/15 01:01:49;;;;;;;4.63;2.13;;;17.80;99.90;;;;;;5087198;28;20455;-85
2022/07/15 01:04:18;;;;;;;8.60;2.57;;;17.80;99.90;;;;;;5094570;28;20441;-86
2022/07/15 01:06:45;;;;;;;3.60;1.90;;;17.80;99.90;;;;;;5079924;28;20880;-85
2022/07/15 01:09:12;;;;;;;5.13;2.43;;;17.90;99.90;;;;;;5066107;28;20447;-86
2022/07/15 01:11:39;;;;;;;5.03;1.90;;;17.90;99.90;;;;;;5068218;28;20978;-84
2022/07/15 01:14:06;;;;;;;6.30;2.50;;;17.80;99.90;;;;;;5066437;28;20681;-85
2022/07/15 01:16:33;;;;;;;7.40;2.63;;;17.90;99.90;;;;;;5077349;28;20508;-85
2022/07/15 01:19:00;;;;;;;5.90;2.33;;;17.90;99.90;;;;;;5089550;28;20508;-84
2022/07/15 01:21:29;;;;;;;5.90;2.20;;;17.90;99.90;;;;;;5087620;28;20473;-84
2022/07/15 01:23:56;;;;;;;6.20;2.17;;;17.80;99.90;;;;;;5083313;28;20463;-84
2022/07/15 01:26:23;;;;;;;5.47;2.10;;;17.70;99.90;;;;;;5074658;28;20513;-86
2022/07/15 01:28:49;;;;;;;9.10;2.00;;;17.80;99.90;;;;;;5063179;28;20520;-85
2022/07/15 01:31:16;;;;;;;5.50;2.10;;;17.70;99.90;;;;;;5065050;28;20478;-85
2022/07/15 01:33:43;;;;;;;8.90;2.10;;;17.80;99.90;;;;;;5064328;28;20442;-85
2022/07/15 01:36:10;;;;;;;6.03;2.20;;;17.80;99.90;;;;;;5072169;28;20469;-84
2022/07/15 01:38:38;;;;;;;4.43;1.73;;;17.80;99.90;;;;;;5083745;28;20518;-86
2022/07/15 01:41:05;;;;;;;4.80;1.80;;;17.80;99.90;;;;;;5082816;28;20487;-85
2022/07/15 01:43:32;;;;;;;7.93;2.10;;;17.70;99.90;;;;;;5081955;28;20484;-83
2022/07/15 01:45:59;;;;;;;5.53;1.80;;;17.70;99.90;;;;;;5079249;28;20472;-84
2022/07/15 01:51:10;;;;;;;5.37;1.60;;;17.70;99.90;;;;;;5065235;28;20443;-84
2022/07/15 01:53:39;;;;;;;5.80;2.27;;;17.60;99.90;;;;;;5075179;28;20466;-84
2022/07/15 01:56:07;;;;;;;6.87;2.60;;;17.60;99.90;;;;;;5083520;28;20521;-85
2022/07/15 01:58:33;;;;;;;5.70;2.13;;;17.60;99.90;;;;;;5085624;28;20471;-84
2022/07/15 02:01:00;;;;;;;6.90;2.40;;;17.60;99.90;;;;;;5085968;28;20451;-85
2022/07/15 02:03:27;;;;;;;5.40;1.80;;;17.60;99.90;;;;;;5081191;28;20457;-84
2022/07/15 02:05:54;;;;;;;6.50;2.07;;;17.60;99.90;;;;;;5074851;28;20470;-86
2022/07/15 02:08:21;;;;;;;6.63;2.20;;;17.50;99.90;;;;;;5074457;28;20445;-84
2022/07/15 02:10:49;;;;;;;5.40;1.83;;;17.50;99.90;;;;;;5076407;28;20452;-84
2022/07/15 02:13:16;;;;;;;5.93;2.20;;;17.50;99.90;;;;;;5073395;28;20463;-84
2022/07/15 02:15:43;;;;;;;6.27;2.90;;;17.50;99.90;;;;;;5063487;28;20497;-85
2022/07/15 02:18:11;;;;;;;6.00;2.47;;;17.40;99.90;;;;;;5062420;28;20841;-83
2022/07/15 02:20:38;;;;;;;4.53;1.50;;;17.40;99.90;;;;;;5062602;28;20493;-83
2022/07/15 02:23:05;;;;;;;4.37;1.90;;;17.30;99.90;;;;;;5071191;28;20455;-86
2022/07/15 02:25:34;;;;;;;3.63;1.50;;;17.20;99.90;;;;;;5082715;28;20498;-83
2022/07/15 02:28:04;;;;;;;5.20;1.80;;;17.20;99.90;;;;;;5089755;28;20827;-84
2022/07/15 02:30:34;;;;;;;5.30;1.57;;;17.10;99.90;;;;;;5080950;28;20471;-85
2022/07/15 02:33:02;;;;;;;4.47;1.87;;;17.10;99.90;;;;;;5070371;28;20545;-83
2022/07/15 02:35:29;;;;;;;5.67;2.47;;;17.00;99.90;;;;;;5058968;28;20475;-83
2022/07/15 02:37:56;;;;;;;6.37;2.30;;;16.90;99.90;;;;;;5058909;28;20459;-84
2022/07/15 02:40:23;;;;;;;7.17;3.40;;;16.90;99.90;;;;;;5059822;28;20561;-84
2022/07/15 02:42:51;;;;;;;9.50;2.57;;;16.80;99.90;;;;;;5065252;28;20458;-84
2022/07/15 02:45:20;;;;;;;5.50;2.00;;;16.80;99.90;;;;;;5079542;28;20588;-85
2022/07/15 02:47:47;;;;;;;7.17;2.40;;;16.70;99.90;;;;;;5080245;28;20456;-82
2022/07/15 02:50:14;;;;;;;5.37;2.03;;;16.60;99.90;;;;;;5079785;28;20442;-82
2022/07/15 02:52:42;;;;;;;4.83;2.00;;;16.60;99.90;;;;;;5074299;28;20496;-84
2022/07/15 02:55:10;;;;;;;4.70;1.93;;;16.50;99.90;;;;;;5059468;28;20483;-85
2022/07/15 02:57:37;;;;;;;4.70;2.43;;;16.50;99.90;;;;;;5060060;28;20527;-85
2022/07/15 03:00:05;;;;;;;4.10;2.10;;;16.40;99.90;;;;;;5060965;28;20550;-84
2022/07/15 03:02:34;;;;;;;5.67;1.90;;;16.30;99.90;;;;;;5064773;28;20450;-84
2022/07/15 03:05:01;;;;;;;4.17;2.00;;;16.30;99.90;;;;;;5081031;28;20535;-86
2022/07/15 03:07:28;;;;;;;4.07;2.20;;;16.20;99.90;;;;;;5086855;28;20447;-86
2022/07/15 03:09:55;;;;;;;8.93;1.73;;;16.20;99.90;;;;;;5093244;28;20457;-83
2022/07/15 03:12:25;;;;;;;5.97;2.50;;;16.10;99.90;;;;;;5075840;28;20455;-83
2022/07/15 03:14:52;;;;;;;5.27;2.10;;;16.00;99.90;;;;;;5057476;28;20566;-83
2022/07/15 03:17:19;;;;;;;4.10;1.80;;;16.00;99.90;;;;;;5057887;28;20475;-83
2022/07/15 03:19:47;;;;;;;4.70;1.80;;;16.00;99.90;;;;;;5057669;28;20523;-83
2022/07/15 03:22:14;;;;;;;4.60;2.30;;;15.90;99.90;;;;;;5057604;28;20979;-83
2022/07/15 03:24:41;;;;;;;5.20;1.97;;;15.90;99.90;;;;;;5077075;28;20581;-82
2022/07/15 03:27:08;;;;;;;9.17;2.30;;;15.80;99.90;;;;;;5077630;28;20526;-84
2022/07/15 03:29:35;;;;;;;5.63;2.53;;;15.80;99.90;;;;;;5079848;28;20977;-83
2022/07/15 03:32:02;;;;;;;6.73;2.43;;;15.70;99.90;;;;;;5081381;28;20506;-84
2022/07/15 03:34:29;;;;;;;4.30;1.90;;;15.70;99.90;;;;;;5056541;28;20504;-84
2022/07/15 03:36:58;;;;;;;11.10;3.07;;;15.60;99.90;;;;;;5060438;28;20956;-84
2022/07/15 03:39:26;;;;;;;6.17;2.10;;;15.60;99.90;;;;;;5060020;28;20486;-82
2022/07/15 03:41:53;;;;;;;6.73;2.57;;;15.60;99.90;;;;;;5061102;28;20487;-84
2022/07/15 03:44:20;;;;;;;5.97;2.47;;;15.60;99.90;;;;;;5059758;28;20466;-83
2022/07/15 03:46:47;;;;;;;4.53;2.07;;;15.50;99.90;;;;;;5060149;28;20466;-82
2022/07/15 03:49:14;;;;;;;5.87;2.13;;;15.50;99.90;;;;;;5060786;28;20491;-83
2022/07/15 03:51:41;;;;;;;6.13;2.53;;;15.50;99.90;;;;;;5060564;28;20470;-83
2022/07/15 03:54:09;;;;;;;6.73;2.30;;;15.50;99.90;;;;;;5074749;28;20537;-84
2022/07/15 03:56:36;;;;;;;5.90;2.70;;;15.50;99.90;;;;;;5080142;28;20442;-83
2022/07/15 03:59:04;;;;;;;6.00;2.07;;;15.40;99.90;;;;;;5080270;28;20835;-83
2022/07/15 04:01:31;;;;;;;6.03;3.17;;;15.40;99.90;;;;;;5079127;28;20530;-83
2022/07/15 04:03:59;;;;;;;8.77;2.70;;;15.40;99.90;;;;;;5064625;28;20902;-83
2022/07/15 04:06:25;;;;;;;10.03;2.80;;;15.40;99.90;;;;;;5059801;28;20479;-85
2022/07/15 04:08:53;;;;;;;6.20;1.90;;;15.40;99.90;;;;;;5060270;28;20454;-84
2022/07/15 04:11:21;;;;;;;4.27;2.30;;;15.40;99.90;;;;;;5059840;28;20538;-85
2022/07/15 04:13:50;;;;;;;4.63;2.50;;;15.40;99.90;;;;;;5071083;28;20529;-83
2022/07/15 04:16:17;;;;;;;4.50;2.10;;;15.40;99.90;;;;;;5079418;28;20540;-83
2022/07/15 04:18:43;;;;;;;6.93;2.63;;;15.40;99.90;;;;;;5079246;28;20537;-84
2022/07/15 04:21:11;;;;;;;5.40;2.43;;;15.50;99.90;;;;;;5079239;28;20496;-84
2022/07/15 04:23:38;;;;;;;8.23;2.70;;;15.50;99.90;;;;;;5067232;28;20497;-84
2022/07/15 04:26:05;;;;;;;6.17;2.50;;;15.50;99.90;;;;;;5058515;28;20499;-84
2022/07/15 04:28:33;;;;;;;5.43;2.50;;;15.60;99.90;;;;;;5058888;28;20606;-83
2022/07/15 04:31:00;;;;;;;5.50;2.57;;;15.60;99.90;;;;;;5059018;28;20487;-84
2022/07/15 04:33:27;;;;;;;5.97;2.60;;;15.70;99.90;;;;;;5067335;28;20985;-84
2022/07/15 04:35:55;;;;;;;7.40;2.90;;;15.70;99.90;;;;;;5078605;28;20471;-82
2022/07/15 04:38:22;;;;;;;5.43;3.40;;;15.70;99.90;;;;;;5078948;28;20470;-82
2022/07/15 04:40:48;;;;;;;7.80;2.10;;;15.80;99.90;;;;;;5077934;28;20483;-84
2022/07/15 04:43:15;;;;;;;6.67;2.73;;;15.90;99.90;;;;;;5064374;28;20543;-84
2022/07/15 04:45:43;;;;;;;6.33;2.50;;;15.90;99.90;;;;;;5059229;28;20554;-83
2022/07/15 04:50:52;;;;;;;10.43;4.30;;;16.00;99.90;;;;;;5058350;28;20795;-84
2022/07/15 04:53:19;;;;;;;15.07;5.27;;;15.90;99.90;;;;;;5072144;28;20529;-85
2022/07/15 04:55:46;;;;;;;10.60;4.83;;;16.00;99.90;;;;;;5079214;28;20467;-83
2022/07/15 04:58:14;;;;;;;8.77;4.40;;;16.10;99.90;;;;;;5079777;28;20454;-85
2022/07/15 05:00:43;;;;;;;8.57;4.80;;;16.10;99.90;;;;;;5079246;28;20498;-84
2022/07/15 05:03:11;;;;;;;10.33;4.37;;;16.20;99.90;;;;;;5066368;28;20476;-83
2022/07/15 05:05:38;;;;;;;7.27;3.87;;;16.20;99.90;;;;;;5060641;28;20551;-85
2022/07/15 05:08:06;;;;;;;6.53;3.70;;;16.30;99.90;;;;;;5061684;28;20482;-85
2022/07/15 05:10:33;;;;;;;7.80;3.53;;;16.30;99.90;;;;;;5061836;28;20945;-85
2022/07/15 05:13:00;;;;;;;8.80;2.80;;;16.30;99.90;;;;;;5086028;28;20435;-83
2022/07/15 05:15:27;;;;;;;10.50;3.60;;;16.30;99.90;;;;;;5083399;28;20481;-83
2022/07/15 05:17:55;;;;;;;10.40;3.60;;;16.40;99.90;;;;;;5078399;28;20479;-83
2022/07/15 05:20:22;;;;;;;7.33;3.20;;;16.40;99.90;;;;;;5078050;28;20565;-83
2022/07/15 05:22:49;;;;;;;8.93;4.07;;;16.40;99.90;;;;;;5068274;28;20458;-82
2022/07/15 05:25:16;;;;;;;5.83;3.00;;;16.50;99.90;;;;;;5058972;28;20489;-86
2022/07/15 05:27:44;;;;;;;9.33;3.60;;;16.50;99.90;;;;;;5057768;28;20819;-84
2022/07/15 05:30:15;;;;;;;6.70;2.60;;;16.50;99.90;;;;;;5058336;28;20459;-81
2022/07/15 05:32:42;;;;;;;8.03;3.77;;;16.50;99.90;;;;;;5059282;28;20460;-82
2022/07/15 05:35:14;;;;;;;8.10;3.00;;;16.60;99.90;;;;;;5058127;28;20519;-84
2022/07/15 05:37:41;;;;;;;8.00;2.87;;;16.60;99.90;;;;;;5059045;28;20457;-84
2022/07/15 05:40:11;;;;;;;5.43;2.90;;;16.70;99.90;;;;;;5054090;28;20576;-83
2022/07/15 05:42:39;;;;;;;4.43;2.67;;;16.70;99.90;;;;;;5062512;28;20459;-83
2022/07/15 05:45:07;;;;;;;9.40;3.80;;;16.80;99.90;;;;;;5058972;28;20469;-83
2022/07/15 05:47:34;;;;;;;6.60;3.10;;;16.70;99.90;;;;;;5053052;28;20489;-81
2022/07/15 05:50:01;;;;;;;8.80;3.00;;;16.80;99.90;;;;;;5056549;28;20487;-82
2022/07/15 05:52:30;;;;;;;7.87;2.50;;;16.90;99.90;;;;;;5063052;28;20489;-82
2022/07/15 05:54:56;;;;;;;6.10;2.77;;;16.90;99.90;;;;;;5064705;28;20508;-83
2022/07/15 05:57:23;;;;;;;5.20;2.90;;;16.80;99.90;;;;;;5060133;28;20488;-83
2022/07/15 05:59:50;;;;;;;6.13;2.30;;;16.90;99.90;;;;;;5060701;28;20483;-83
2022/07/15 06:02:17;;;;;;;5.47;2.07;;;17.00;99.90;;;;;;5063554;28;20460;-81
2022/07/15 06:04:44;;;;;;;6.63;2.30;;;17.10;99.90;;;;;;5065752;28;20529;-82
2022/07/15 06:07:11;;;;;;;7.00;2.97;;;17.10;99.90;;;;;;5061155;28;20484;-81
2022/07/15 06:09:40;;;;;;;8.80;2.10;;;17.20;99.90;;;;;;5059949;28;20803;-83
2022/07/15 06:12:09;;;;;;;5.80;2.53;;;17.30;99.90;;;;;;5061995;28;20454;-82
2022/07/15 06:14:36;;;;;;;6.90;2.30;;;17.30;99.90;;;;;;5068270;28;20571;-81
2022/07/15 06:17:03;;;;;;;7.37;2.47;;;17.40;99.90;;;;;;5063770;28;20979;-82
2022/07/15 06:19:29;;;;;;;5.13;1.80;;;17.40;99.90;;;;;;5061562;28;20484;-81
2022/07/15 06:21:56;;;;;;;6.10;1.93;;;17.40;99.90;;;;;;5060399;28;20583;-84
2022/07/15 06:24:23;;;;;;;4.40;1.40;;;17.40;99.90;;;;;;5061727;28;20490;-82
2022/07/15 06:26:51;;;;;;;6.73;1.50;;;17.50;99.90;;;;;;5063318;28;20526;-83
2022/07/15 06:29:18;;;;;;;9.10;2.23;;;17.50;99.90;;;;;;5063830;28;20448;-81
2022/07/15 06:31:45;;;;;;;8.00;1.93;;;17.50;99.90;;;;;;5064895;28;20500;-83
2022/07/15 06:34:12;;;;;;;6.83;1.80;;;17.50;99.90;;;;;;5057352;28;20502;-80
2022/07/15 06:36:39;;;;;;;5.17;1.43;;;17.50;99.90;;;;;;5067319;28;20461;-83
2022/07/15 06:39:06;;;;;;;4.03;1.33;;;17.70;99.90;;;;;;5067774;28;20445;-81
2022/07/15 06:41:33;;;;;;;4.70;1.67;;;17.80;99.90;;;;;;5063449;28;20513;-81
2022/07/15 06:44:02;;;;;;;9.13;1.87;;;17.90;99.90;;;;;;5061597;28;20482;-80
2022/07/15 06:46:29;;;;;;;6.63;2.03;;;18.00;99.90;;;;;;5058962;28;20481;-83
2022/07/15 06:48:56;;;;;;;5.17;1.60;;;18.10;99.90;;;;;;5063818;28;20853;-82
2022/07/15 06:51:23;;;;;;;5.83;1.70;;;18.20;99.90;;;;;;5059430;28;20459;-79
2022/07/15 06:53:50;;;;;;;4.43;1.60;;;18.40;99.90;;;;;;5057912;28;20483;-81
2022/07/15 06:56:17;;;;;;;6.67;1.60;;;18.50;99.90;;;;;;5063945;28;20523;-79
2022/07/15 06:58:44;;;;;;;13.80;2.00;;;18.50;99.90;;;;;;5064963;28;20548;-79
2022/07/15 07:01:13;;;;;;;5.43;2.03;;;18.70;99.90;;;;;;5062488;28;20510;-79
2022/07/15 07:03:39;;;;;;;4.27;1.40;;;18.80;99.90;;;;;;5064701;28;20858;-81
2022/07/15 07:06:07;;;;;;;6.00;1.57;;;19.00;99.90;;;;;;5069094;28;20513;-83
2022/07/15 07:08:34;;;;;;;6.30;1.43;;;19.10;99.90;;;;;;5061922;28;20464;-80
2022/07/15 07:11:01;;;;;;;12.60;1.80;;;19.10;99.90;;;;;;5066144;28;20448;-83
2022/07/15 07:13:27;;;;;;;10.33;2.30;;;19.10;99.90;;;;;;5066633;28;20450;-82
2022/07/15 07:15:54;;;;;;;4.73;1.37;;;19.10;99.90;;;;;;5062477;28;20539;-81
2022/07/15 07:18:23;;;;;;;10.20;2.70;;;19.00;99.90;;;;;;5066744;28;20476;-82
2022/07/15 07:20:49;;;;;;;8.20;2.57;;;18.90;99.90;;;;;;5071256;28;20529;-80
2022/07/15 07:23:16;;;;;;;4.10;1.20;;;18.90;99.90;;;;;;5063074;28;20863;-81
2022/07/15 07:25:43;;;;;;;5.53;1.43;;;18.90;99.90;;;;;;5065227;28;20521;-82
2022/07/15 07:28:13;;;;;;;4.83;1.60;;;18.90;99.90;;;;;;5058932;28;20492;-80
2022/07/15 07:30:40;;;;;;;4.40;1.40;;;18.90;99.90;;;;;;5064180;28;20477;-81
2022/07/15 07:33:07;;;;;;;6.13;1.90;;;19.00;99.90;;;;;;5062199;28;20505;-83
2022/07/15 07:35:35;;;;;;;4.87;1.30;;;19.00;99.90;;;;;;5062897;28;20505;-81
2022/07/15 07:38:02;;;;;;;4.80;1.60;;;19.00;99.90;;;;;;5068148;28;20455;-80
2022/07/15 07:40:31;;;;;;;6.43;1.50;;;18.90;99.90;;;;;;5059571;28;20462;-82
2022/07/15 07:42:58;;;;;;;7.63;1.90;;;19.00;99.90;;;;;;5067983;28;21021;-83
2022/07/15 07:45:25;;;;;;;5.13;1.30;;;19.10;99.90;;;;;;5070601;28;20460;-83
2022/07/15 07:47:52;;;;;;;5.87;1.50;;;19.20;99.90;;;;;;5082631;28;20460;-84
2022/07/15 07:50:19;;;;;;;3.53;1.33;;;19.30;99.90;;;;;;5086186;28;20439;-81
2022/07/15 07:52:47;;;;;;;4.63;0.90;;;19.30;99.90;;;;;;5088305;28;20520;-80
2022/07/15 07:55:15;;;;;;;5.07;1.37;;;19.40;99.90;;;;;;5087232;28;20571;-83
2022/07/15 07:57:49;;;;;;;5.60;1.83;;;19.30;99.90;;;;;;5087368;28;20453;-83
2022/07/15 08:00:16;;;;;;;5.40;1.80;;;19.30;99.90;;;;;;5069499;28;20485;-82
2022/07/15 08:02:43;;;;;;;3.60;1.20;;;19.20;99.90;;;;;;5088337;28;20517;-82
2022/07/15 08:05:10;;;;;;;10.70;2.00;;;19.20;99.90;;;;;;5073113;28;20498;-80
2022/07/15 08:07:37;;;;;;;4.30;1.30;;;19.30;99.90;;;;;;5068484;28;20483;-81
2022/07/15 08:10:07;;;;;;;10.03;1.70;;;19.40;99.90;;;;;;5068858;28;20519;-81
2022/07/15 08:12:34;;;;;;;8.07;1.50;;;19.60;99.90;;;;;;5068581;28;20448;-82
2022/07/15 08:15:02;;;;;;;5.87;1.50;;;19.70;99.90;;;;;;5067356;28;20475;-83
2022/07/15 08:17:29;;;;;;;5.00;1.20;;;19.90;99.90;;;;;;5082491;28;20461;-81
2022/07/15 08:19:55;;;;;;;7.10;1.50;;;20.30;99.90;;;;;;5087634;28;20451;-82
2022/07/15 08:22:22;;;;;;;12.30;1.33;;;20.40;99.90;;;;;;5076274;28;20508;-81
2022/07/15 08:24:50;;;;;;;8.83;2.43;;;20.30;99.90;;;;;;5068635;28;20513;-83
2022/07/15 08:27:19;;;;;;;7.60;1.70;;;20.30;99.90;;;;;;5087981;28;20442;-81
2022/07/15 08:29:46;;;;;;;5.70;1.50;;;20.60;99.90;;;;;;5076067;28;20451;-84
2022/07/15 08:32:13;;;;;;;7.97;1.73;;;20.60;99.90;;;;;;5083653;28;20454;-81
2022/07/15 08:34:41;;;;;;;4.00;1.47;;;20.30;99.90;;;;;;5086928;28;20499;-82
2022/07/15 08:37:09;;;;;;;5.70;1.60;;;20.20;99.90;;;;;;5071127;28;20482;-82
2022/07/15 08:39:36;;;;;;;6.47;1.67;;;20.10;99.90;;;;;;5067491;28;20456;-85
2022/07/15 08:42:04;;;;;;;5.40;1.50;;;20.00;99.90;;;;;;5065019;28;21122;-86
2022/07/15 08:44:33;;;;;;;6.50;1.47;;;20.00;99.90;;;;;;5067257;28;20949;-82
2022/07/15 08:47:03;;;;;;;7.23;1.63;;;20.00;99.90;;;;;;5067211;28;20452;-82
2022/07/15 08:49:32;;;;;;;8.80;2.50;;;20.00;99.90;;;;;;5064248;28;20518;-84
2022/07/15 08:52:00;;;;;;;5.10;1.60;;;20.30;99.90;;;;;;5065390;28;20444;-83
2022/07/15 08:54:32;;;;;;;5.00;1.27;;;20.50;99.90;;;;;;5064655;28;20448;-81
2022/07/15 08:56:59;;;;;;;6.80;1.70;;;20.70;99.90;;;;;;5065983;28;20855;-81
2022/07/15 08:59:26;;;;;;;4.47;1.60;;;21.00;99.90;;;;;;5068718;28;20475;-81
2022/07/15 09:01:55;;;;;;;5.10;2.07;;;21.50;99.90;;;;;;5068973;28;20503;-82
2022/07/15 09:04:22;;;;;;;4.43;1.30;;;21.90;99.90;;;;;;5068267;28;20455;-83
2022/07/15 09:06:50;;;;;;;3.67;1.10;;;22.20;99.90;;;;;;5067880;28;20650;-81
2022/07/15 09:09:28;;;;;;;4.90;1.10;;;22.20;99.90;;;;;;5069241;28;20507;-84
2022/07/15 09:11:58;;;;;;;6.47;1.37;;;21.90;99.90;;;;;;5076070;22;20481;-82
2022/07/15 09:14:27;;;;;;;7.20;1.03;;;21.40;99.90;;;;;;5086837;28;20496;-81
2022/07/15 09:17:06;;;;;;;5.27;1.73;;;20.90;99.90;;;;;;5090862;28;20442;-79
2022/07/15 09:19:57;;;;;;;5.70;1.67;;;20.70;99.90;;;;;;5089489;28;20454;-79
2022/07/15 09:22:25;;;;;;;6.53;1.40;;;20.60;99.90;;;;;;5064621;28;20514;-81
2022/07/15 09:25:01;;;;;;;6.27;1.13;;;20.30;99.90;;;;;;5074038;28;20442;-82
2022/07/15 09:27:29;;;;;;;4.63;1.03;;;20.20;99.90;;;;;;5091581;28;20451;-82
2022/07/15 09:38:13;;;;;;;3.93;1.43;;;21.70;99.90;;;;;;5088007;28;20482;-80
2022/07/15 09:40:48;;;;;;;4.60;1.37;;;22.20;99.90;;;;;;5087731;28;20971;-81
2022/07/15 09:43:15;;;;;;;3.57;1.10;;;22.70;99.90;;;;;;5084361;28;20528;-81
2022/07/15 09:45:42;;;;;;;8.27;1.20;;;22.80;99.90;;;;;;5085519;28;20951;-81
2022/07/15 09:48:12;;;;;;;4.30;1.33;;;22.60;99.90;;;;;;5086110;28;20484;-81
2022/07/15 09:50:40;;;;;;;3.20;1.13;;;22.60;99.90;;;;;;5086669;28;20443;-81
2022/07/15 09:53:12;;;;;;;4.77;1.00;;;22.60;99.90;;;;;;5085882;28;20479;-81
2022/07/15 09:55:40;;;;;;;3.30;1.37;;;22.40;99.90;;;;;;5086492;28;20474;-82
2022/07/15 09:58:08;;;;;;;4.20;1.10;;;22.50;99.90;;;;;;5087524;28;20451;-82
2022/07/15 10:00:37;;;;;;;3.00;1.00;;;22.80;99.90;;;;;;5085776;28;20436;-80
2022/07/15 10:03:05;;;;;;;4.53;0.90;;;22.80;99.90;;;;;;5086632;28;20491;-80
2022/07/15 10:05:38;;;;;;;5.40;1.30;;;23.10;99.90;;;;;;5085627;28;20708;-79
2022/07/15 10:08:07;;;;;;;5.17;1.40;;;23.40;99.90;;;;;;5078267;28;20453;-78
2022/07/15 10:10:34;;;;;;;4.57;0.90;;;23.60;99.90;;;;;;5071492;28;20896;-79
2022/07/15 10:13:12;;;;;;;4.97;1.43;;;24.10;99.90;;;;;;5071253;28;20562;-80
2022/07/15 10:15:47;;;;;;;3.30;1.07;;;24.20;99.90;;;;;;5071679;28;20816;-78
2022/07/15 10:18:33;;;;;;;3.57;1.23;;;23.90;99.90;;;;;;5072910;28;20493;-79
2022/07/15 10:21:13;;;;;;;3.80;1.57;;;23.40;99.90;;;;;;5075815;28;20479;-80
2022/07/15 10:23:57;;;;;;;4.73;1.10;;;22.90;99.90;;;;;;5076574;28;20461;-80
2022/07/15 10:26:38;;;;;;;3.80;1.30;;;22.50;99.90;;;;;;5078714;28;20474;-80
2022/07/15 10:29:08;;;;;;;4.93;1.30;;;22.20;99.90;;;;;;5079917;28;21018;-79
2022/07/15 10:31:38;;;;;;;9.00;1.50;;;22.20;99.90;;;;;;5077919;28;20530;-80
2022/07/15 10:34:21;;;;;;;4.03;1.13;;;22.40;99.90;;;;;;5077292;28;20467;-81
2022/07/15 10:36:58;;;;;;;7.37;1.23;;;22.80;99.90;;;;;;5076715;28;20458;-77
2022/07/15 10:39:28;;;;;;;5.30;1.90;;;23.10;99.90;;;;;;5076364;28;20518;-78
2022/07/15 10:41:57;;;;;;;5.60;1.47;;;23.10;99.90;;;;;;5079769;28;20536;-80
2022/07/15 10:44:25;;;;;;;4.93;1.20;;;22.90;99.90;;;;;;5079499;28;20455;-79
2022/07/15 10:47:20;;;;;;;4.13;1.30;;;22.70;99.90;;;;;;5078243;28;20452;-80
2022/07/15 10:49:48;;;;;;;4.10;1.20;;;22.60;99.90;;;;;;5081337;28;20973;-79
2022/07/15 10:52:18;;;;;;;4.17;1.30;;;22.50;99.90;;;;;;5082828;28;20474;-78
2022/07/15 10:54:50;;;;;;;3.93;1.13;;;22.60;99.90;;;;;;5077684;28;20439;-78
2022/07/15 10:57:20;;;;;;;4.60;1.30;;;22.90;99.90;;;;;;5082074;28;20463;-79
2022/07/15 10:59:55;;;;;;;4.80;1.50;;;23.10;99.90;;;;;;5076413;28;20978;-77
2022/07/15 11:02:25;;;;;;;8.43;1.20;;;23.20;99.90;;;;;;5080471;28;20488;-78
2022/07/15 11:04:53;;;;;;;5.00;1.50;;;23.00;99.90;;;;;;5079120;28;20466;-80
2022/07/15 11:07:28;;;;;;;4.03;1.40;;;22.90;99.90;;;;;;5081227;28;20522;-80
2022/07/15 11:09:57;;;;;;;4.10;1.00;;;22.80;99.90;;;;;;5080909;28;20442;-78
2022/07/15 11:12:45;;;;;;;3.90;1.23;;;23.00;99.90;;;;;;5079626;28;20718;-79
2022/07/15 11:15:13;;;;;;;3.90;1.43;;;23.10;99.90;;;;;;5074556;28;20983;-79
2022/07/15 11:17:42;;;;;;;2.27;0.97;;;23.60;99.90;;;;;;5079207;28;20475;-78
2022/07/15 11:20:11;;;;;;;4.63;1.07;;;23.90;99.90;;;;;;5079240;28;20530;-79
2022/07/15 11:22:42;;;;;;;3.10;1.20;;;23.90;99.90;;;;;;5080400;28;20482;-79
2022/07/15 11:25:18;;;;;;;5.13;1.27;;;23.90;99.90;;;;;;5078518;28;20446;-80
2022/07/15 11:28:03;;;;;;;4.37;1.20;;;23.70;99.90;;;;;;5077117;28;20446;-81
2022/07/15 11:30:34;;;;;;;2.60;1.00;;;23.50;99.90;;;;;;5077675;28;20451;-77
2022/07/15 11:33:03;;;;;;;5.50;1.13;;;23.30;99.90;;;;;;5078060;28;20913;-79
2022/07/15 11:35:31;;;;;;;4.00;1.30;;;23.00;99.90;;;;;;5079259;28;20486;-79
2022/07/15 11:38:01;;;;;;;5.23;1.10;;;22.80;99.90;;;;;;5079059;28;20467;-78
2022/07/15 11:46:00;;;;;;;2.93;0.90;;;22.30;99.90;;;;;;5074625;28;20449;-80
2022/07/15 11:48:27;;;;;;;4.00;1.30;;;22.00;99.90;;;;;;5078286;28;20458;-81
2022/07/15 11:50:56;;;;;;;3.93;1.00;;;22.30;99.90;;;;;;5082064;28;20473;-78
2022/07/15 11:53:25;;;;;;;4.20;1.20;;;23.20;99.90;;;;;;5079141;28;20467;-78
2022/07/15 11:55:55;;;;;;;3.63;0.90;;;24.30;99.90;;;;;;5079509;28;20530;-80
2022/07/15 11:58:29;;;;;;;2.73;0.70;;;24.40;99.90;;;;;;5078570;28;20470;-80
2022/07/15 12:00:56;;;;;;;2.43;0.83;;;24.20;99.90;;;;;;5077907;28;20446;-79
2022/07/15 12:03:23;;;;;;;3.77;1.10;;;23.90;99.90;;;;;;5076487;28;20525;-79
2022/07/15 12:06:04;;;;;;;3.30;1.00;;;23.70;99.90;;;;;;5075612;28;20479;-81
2022/07/15 12:08:37;;;;;;;5.90;1.67;;;23.20;99.90;;;;;;5081241;28;20449;-79
2022/07/15 12:11:24;;;;;;;2.80;1.00;;;23.20;99.90;;;;;;5082250;28;20909;-80
2022/07/15 12:13:55;;;;;;;7.07;1.20;;;23.20;99.90;;;;;;5076976;28;20513;-79
2022/07/15 12:16:30;;;;;;;5.03;1.10;;;23.10;99.90;;;;;;5084511;28;20451;-79
2022/07/15 12:18:59;;;;;;;3.00;1.00;;;23.00;99.90;;;;;;5085333;28;20470;-81
2022/07/15 12:21:26;;;;;;;3.23;0.97;;;22.90;99.90;;;;;;5086297;28;20439;-80
2022/07/15 12:24:07;;;;;;;2.20;0.80;;;22.70;99.90;;;;;;5086216;28;20498;-79
2022/07/15 12:26:38;;;;;;;2.40;0.93;;;22.50;99.90;;;;;;5093869;28;20438;-82
2022/07/15 12:29:06;;;;;;;4.63;1.20;;;22.60;99.90;;;;;;5097039;28;20423;-82
2022/07/15 12:31:35;;;;;;;3.23;1.00;;;22.90;99.90;;;;;;5087689;28;20443;-78
2022/07/15 12:34:03;;;;;;;2.77;0.97;;;23.40;99.90;;;;;;5078063;28;20515;-79
2022/07/15 12:36:33;;;;;;;3.00;1.10;;;23.40;99.90;;;;;;5078097;28;20447;-78
2022/07/15 12:39:07;;;;;;;2.80;0.90;;;23.40;99.90;;;;;;5080307;28;20463;-80
2022/07/15 12:41:35;;;;;;;3.60;1.00;;;23.30;99.90;;;;;;5076853;28;20470;-79
2022/07/15 12:44:04;;;;;;;3.90;1.00;;;23.10;99.90;;;;;;5077414;28;20513;-78
2022/07/15 12:46:52;;;;;;;4.03;0.90;;;23.40;99.90;;;;;;5075856;28;20479;-77
2022/07/15 12:49:41;;;;;;;3.27;0.70;;;23.40;99.90;;;;;;5080862;28;20873;-79
2022/07/15 12:52:16;;;;;;;2.40;0.90;;;23.30;99.90;;;;;;5079858;28;20556;-78
2022/07/15 12:54:45;;;;;;;3.30;0.93;;;23.20;99.90;;;;;;5078818;28;20439;-78
2022/07/15 12:57:22;;;;;;;3.13;0.97;;;23.00;99.90;;;;;;5079789;28;20574;-80
2022/07/15 12:59:54;;;;;;;2.63;0.80;;;23.00;99.90;;;;;;5076399;28;20558;-81
2022/07/15 13:02:21;;;;;;;1.90;0.70;;;22.90;99.90;;;;;;5073049;28;20555;-78
2022/07/15 13:04:48;;;;;;;2.73;0.80;;;22.80;99.90;;;;;;5077698;28;20455;-81
2022/07/15 13:07:15;;;;;;;2.73;0.80;;;22.80;99.90;;;;;;5076764;28;20475;-80
2022/07/15 13:09:42;;;;;;;4.33;0.90;;;22.80;99.90;;;;;;5080124;28;20997;-78
2022/07/15 13:12:10;;;;;;;2.37;0.73;;;23.40;99.90;;;;;;5080295;28;20561;-82
2022/07/15 13:14:38;;;;;;;2.33;0.83;;;24.60;99.90;;;;;;5078594;28;20970;-78